createdAt,value
2019-02-21T00:01:23.466Z,42.38
2019-02-21T00:03:56.713Z,42.17
2019-02-21T00:06:29.941Z,42.36
2019-02-21T00:09:04.510Z,42.22
2019-02-21T00:11:37.826Z,42.37
2019-02-21T00:14:11.073Z,42.28
2019-02-21T00:16:44.294Z,42.52
2019-02-21T00:19:17.583Z,42.37
2019-02-21T00:21:50.826Z,42.59
2019-02-21T00:24:24.075Z,42.47
2019-02-21T00:26:57.302Z,42.49
2019-02-21T00:29:30.551Z,42.50
2019-02-21T00:32:03.784Z,42.48
2019-02-21T00:34:37.034Z,42.46
2019-02-21T00:37:10.268Z,42.55
2019-02-21T00:39:43.512Z,42.61
2019-02-21T00:42:16.735Z,42.63
2019-02-21T00:44:49.972Z,42.68
2019-02-21T00:47:23.202Z,42.63
2019-02-21T00:49:56.457Z,42.75
2019-02-21T00:52:31.456Z,42.76
2019-02-21T00:55:05.483Z,42.88
2019-02-21T00:57:38.718Z,42.93
2019-02-21T01:00:11.996Z,42.82
2019-02-21T01:02:45.235Z,42.90
2019-02-21T01:05:18.472Z,42.83
2019-02-21T01:07:51.703Z,43.09
2019-02-21T01:10:24.948Z,43.18
2019-02-21T01:12:58.177Z,43.34
2019-02-21T01:15:31.433Z,43.20
2019-02-21T01:18:04.662Z,43.26
2019-02-21T01:20:37.915Z,43.25
2019-02-21T01:23:11.147Z,43.18
2019-02-21T01:25:44.398Z,43.22
2019-02-21T01:28:17.892Z,43.26
2019-02-21T01:30:57.093Z,43.16
2019-02-21T01:33:26.069Z,43.15
2019-02-21T01:36:00.291Z,43.17
2019-02-21T01:38:33.524Z,43.12
2019-02-21T01:41:06.783Z,43.12
2019-02-21T01:43:40.007Z,43.15
2019-02-21T01:46:13.263Z,43.26
2019-02-21T01:48:46.492Z,43.10
2019-02-21T01:51:19.746Z,43.12
2019-02-21T01:53:52.976Z,43.10
2019-02-21T01:56:26.557Z,43.34
2019-02-21T01:58:59.790Z,43.38
2019-02-21T02:01:33.048Z,43.37
2019-02-21T02:04:06.283Z,43.63
2019-02-21T02:06:39.533Z,43.46
2019-02-21T02:09:12.760Z,43.20
2019-02-21T02:11:46.006Z,43.38
2019-02-21T02:14:19.233Z,43.42
2019-02-21T02:16:52.484Z,43.34
2019-02-21T02:19:25.743Z,43.38
2019-02-21T02:21:58.970Z,43.40
2019-02-21T02:24:33.178Z,43.22
2019-02-21T02:27:06.423Z,43.44
2019-02-21T02:29:39.655Z,43.29
2019-02-21T02:32:12.895Z,43.30
2019-02-21T02:34:46.132Z,43.38
2019-02-21T02:37:19.383Z,43.30
2019-02-21T02:39:52.606Z,43.34
2019-02-21T02:42:25.852Z,43.37
2019-02-21T02:44:59.076Z,43.37
2019-02-21T02:47:32.334Z,43.29
2019-02-21T02:50:06.907Z,43.46
2019-02-21T02:52:40.159Z,43.36
2019-02-21T02:55:13.493Z,43.54
2019-02-21T02:57:46.716Z,43.44
2019-02-21T03:00:19.949Z,43.71
2019-02-21T03:02:53.214Z,43.68
2019-02-21T03:05:26.434Z,43.77
2019-02-21T03:07:59.671Z,43.82
2019-02-21T03:10:32.902Z,43.85
2019-02-21T03:13:06.155Z,43.93
2019-02-21T03:15:39.384Z,43.97
2019-02-21T03:18:12.628Z,43.99
2019-02-21T03:20:45.860Z,43.93
2019-02-21T03:23:19.128Z,44.08
2019-02-21T03:25:52.355Z,43.98
2019-02-21T03:28:25.607Z,44.03
2019-02-21T03:30:58.845Z,44.12
2019-02-21T03:33:32.406Z,43.92
2019-02-21T03:36:05.641Z,43.92
2019-02-21T03:38:38.892Z,44.04
2019-02-21T03:41:12.142Z,44.08
2019-02-21T03:43:45.372Z,43.80
2019-02-21T03:46:18.612Z,43.85
2019-02-21T03:48:51.843Z,44.05
2019-02-21T03:51:25.104Z,44.00
2019-02-21T03:53:58.346Z,43.71
2019-02-21T03:56:31.579Z,43.88
2019-02-21T03:59:04.826Z,44.10
2019-02-21T04:01:38.056Z,44.10
2019-02-21T04:04:11.308Z,44.04
2019-02-21T04:06:44.539Z,44.14
2019-02-21T04:09:17.789Z,43.96
2019-02-21T04:11:51.024Z,44.10
2019-02-21T04:14:24.270Z,44.03
2019-02-21T04:16:57.498Z,44.07
2019-02-21T04:19:31.719Z,44.05
2019-02-21T04:22:05.287Z,44.06
2019-02-21T04:24:38.543Z,44.13
2019-02-21T04:27:12.951Z,44.15
2019-02-21T04:29:46.202Z,43.79
2019-02-21T04:32:19.445Z,44.05
2019-02-21T04:34:52.683Z,43.84
2019-02-21T04:37:25.912Z,43.51
2019-02-21T04:39:59.162Z,43.27
2019-02-21T04:42:32.396Z,43.26
2019-02-21T04:45:06.206Z,43.32
2019-02-21T04:47:39.448Z,43.28
2019-02-21T04:50:13.667Z,43.26
2019-02-21T04:52:46.910Z,43.34
2019-02-21T04:55:20.153Z,43.44
2019-02-21T04:57:53.386Z,43.43
2019-02-21T05:00:26.624Z,43.58
2019-02-21T05:02:59.858Z,43.44
2019-02-21T05:05:33.104Z,43.38
2019-02-21T05:08:06.341Z,43.30
2019-02-21T05:10:39.588Z,43.13
2019-02-21T05:13:12.807Z,42.86
2019-02-21T05:15:46.066Z,43.05
2019-02-21T05:18:19.293Z,43.36
2019-02-21T05:20:52.546Z,43.43
2019-02-21T05:23:25.773Z,43.55
2019-02-21T05:25:59.020Z,43.39
2019-02-21T05:28:32.253Z,43.20
2019-02-21T05:31:05.525Z,43.37
2019-02-21T05:33:38.749Z,42.85
2019-02-21T05:36:12.001Z,41.98
2019-02-21T05:38:45.234Z,41.65
2019-02-21T05:41:18.489Z,41.34
2019-02-21T05:43:51.717Z,40.99
2019-02-21T05:46:25.043Z,40.63
2019-02-21T05:48:58.629Z,40.50
2019-02-21T05:51:31.877Z,40.42
2019-02-21T05:54:05.104Z,40.22
2019-02-21T05:56:38.368Z,40.31
2019-02-21T05:59:11.851Z,40.54
2019-02-21T06:01:45.107Z,40.63
2019-02-21T06:04:19.389Z,41.62
2019-02-21T06:06:52.853Z,42.26
2019-02-21T06:09:26.091Z,42.85
2019-02-21T06:11:59.352Z,42.72
2019-02-21T06:14:33.656Z,43.14
2019-02-21T06:17:06.911Z,43.37
2019-02-21T06:19:40.151Z,43.44
2019-02-21T06:22:13.407Z,43.71
2019-02-21T06:24:46.644Z,43.75
2019-02-21T06:27:19.897Z,43.71
2019-02-21T06:29:53.154Z,43.76
2019-02-21T06:32:26.405Z,43.67
2019-02-21T06:35:02.432Z,43.43
2019-02-21T06:37:34.594Z,43.22
2019-02-21T06:40:07.830Z,43.50
2019-02-21T06:42:42.067Z,44.12
2019-02-21T06:45:18.032Z,44.74
2019-02-21T06:47:50.276Z,44.21
2019-02-21T06:50:26.679Z,44.06
2019-02-21T06:52:58.465Z,43.98
2019-02-21T06:55:31.702Z,43.70
2019-02-21T06:58:04.964Z,43.84
2019-02-21T07:00:39.276Z,43.86
2019-02-21T07:03:15.716Z,43.93
2019-02-21T07:05:47.452Z,43.95
2019-02-21T07:08:20.694Z,43.90
2019-02-21T07:10:53.932Z,43.95
2019-02-21T07:13:27.206Z,43.79
2019-02-21T07:16:00.409Z,43.71
2019-02-21T07:18:33.655Z,43.76
2019-02-21T07:21:06.898Z,43.70
2019-02-21T07:23:43.435Z,43.69
2019-02-21T07:26:15.083Z,43.56
2019-02-21T07:28:48.325Z,43.37
2019-02-21T07:31:28.837Z,43.11
2019-02-21T07:33:56.500Z,42.86
2019-02-21T07:36:29.750Z,42.59
2019-02-21T07:39:16.475Z,42.44
2019-02-21T07:41:41.459Z,42.26
2019-02-21T07:44:14.669Z,42.18
2019-02-21T07:46:47.902Z,42.04
2019-02-21T07:49:21.144Z,42.02
2019-02-21T07:51:54.386Z,42.10
2019-02-21T07:54:27.631Z,42.07
2019-02-21T07:57:01.827Z,42.07
2019-02-21T07:59:35.300Z,42.09
2019-02-21T08:02:08.540Z,42.04
2019-02-21T08:04:41.789Z,42.04
2019-02-21T08:07:15.019Z,41.98
2019-02-21T08:09:48.277Z,41.94
2019-02-21T08:12:23.247Z,41.95
2019-02-21T08:14:56.748Z,42.01
2019-02-21T08:17:30.007Z,42.00
2019-02-21T08:20:08.241Z,41.93
2019-02-21T08:22:39.042Z,41.88
2019-02-21T08:25:12.315Z,41.91
2019-02-21T08:27:45.549Z,41.91
2019-02-21T08:30:19.889Z,41.92
2019-02-21T08:32:53.092Z,41.89
2019-02-21T08:35:26.588Z,41.82
2019-02-21T08:37:59.816Z,41.87
2019-02-21T08:40:33.065Z,41.85
2019-02-21T08:43:06.298Z,41.83
2019-02-21T08:45:39.546Z,41.79
2019-02-21T08:48:13.627Z,41.71
2019-02-21T08:50:47.879Z,41.67
2019-02-21T08:53:21.115Z,41.56
2019-02-21T08:55:55.996Z,41.47
2019-02-21T08:58:29.388Z,41.43
2019-02-21T09:01:02.642Z,41.39
2019-02-21T09:03:35.868Z,41.45
2019-02-21T09:06:09.121Z,41.42
2019-02-21T09:08:42.356Z,41.39
2019-02-21T09:11:15.602Z,41.55
2019-02-21T09:13:48.830Z,41.56
2019-02-21T09:16:22.070Z,41.51
2019-02-21T09:18:55.302Z,41.39
2019-02-21T09:21:28.838Z,41.32
2019-02-21T09:24:02.081Z,41.37
2019-02-21T09:26:35.330Z,41.32
2019-02-21T09:29:08.570Z,41.30
2019-02-21T09:31:41.799Z,41.40
2019-02-21T09:34:21.194Z,41.41
2019-02-21T09:36:49.978Z,41.29
2019-02-21T09:39:23.210Z,41.36
2019-02-21T09:41:56.463Z,41.37
2019-02-21T09:44:29.697Z,41.29
2019-02-21T09:47:02.951Z,41.24
2019-02-21T09:49:36.182Z,41.25
2019-02-21T09:52:09.470Z,41.31
2019-02-21T09:54:42.700Z,41.37
2019-02-21T09:57:15.945Z,41.23
2019-02-21T09:59:49.172Z,41.14
2019-02-21T10:02:23.119Z,41.07
2019-02-21T10:05:04.468Z,41.12
2019-02-21T10:07:31.490Z,41.29
2019-02-21T10:10:13.115Z,41.35
2019-02-21T10:12:46.349Z,41.26
2019-02-21T10:15:19.608Z,41.14
2019-02-21T10:17:52.824Z,41.12
2019-02-21T10:20:26.051Z,40.93
2019-02-21T10:22:59.293Z,40.90
2019-02-21T10:25:32.526Z,40.83
2019-02-21T10:28:05.779Z,40.83
2019-02-21T10:30:39.005Z,40.68
2019-02-21T10:33:12.252Z,40.70
2019-02-21T10:35:45.484Z,40.75
2019-02-21T10:38:18.720Z,40.57
2019-02-21T10:40:52.278Z,40.68
2019-02-21T10:43:25.517Z,40.88
2019-02-21T10:45:58.750Z,41.04
2019-02-21T10:48:31.982Z,41.11
2019-02-21T10:51:05.210Z,41.22
2019-02-21T10:53:38.451Z,41.21
2019-02-21T10:56:11.694Z,41.30
2019-02-21T10:58:44.918Z,41.39
2019-02-21T11:01:18.144Z,41.46
2019-02-21T11:03:51.398Z,41.50
2019-02-21T11:06:24.633Z,41.47
2019-02-21T11:08:57.879Z,41.41
2019-02-21T11:11:31.112Z,41.33
2019-02-21T11:14:04.366Z,41.33
2019-02-21T11:16:37.685Z,41.27
2019-02-21T11:19:10.920Z,41.37
2019-02-21T11:21:44.152Z,41.41
2019-02-21T11:24:17.384Z,41.45
2019-02-21T11:26:50.621Z,41.48
2019-02-21T11:29:23.864Z,41.37
2019-02-21T11:31:57.094Z,41.25
2019-02-21T11:34:30.339Z,41.18
2019-02-21T11:37:03.570Z,41.24
2019-02-21T11:39:36.818Z,41.18
2019-02-21T11:42:10.045Z,41.00
2019-02-21T11:44:43.290Z,40.96
2019-02-21T11:47:16.522Z,41.07
2019-02-21T11:49:49.781Z,41.08
2019-02-21T11:52:23.004Z,41.16
2019-02-21T11:54:56.235Z,41.23
2019-02-21T11:57:29.470Z,41.22
2019-02-21T12:00:04.732Z,41.25
2019-02-21T12:02:39.122Z,41.24
2019-02-21T12:05:17.375Z,41.22
2019-02-21T12:07:47.304Z,41.16
2019-02-21T12:10:20.552Z,41.20
2019-02-21T12:12:53.801Z,41.08
2019-02-21T12:15:27.196Z,41.20
2019-02-21T12:18:00.436Z,41.30
2019-02-21T12:20:33.672Z,41.34
2019-02-21T12:23:06.906Z,41.33
2019-02-21T12:25:40.144Z,41.28
2019-02-21T12:28:13.374Z,41.29
2019-02-21T12:30:46.619Z,41.17
2019-02-21T12:33:19.853Z,41.18
2019-02-21T12:35:53.090Z,41.19
2019-02-21T12:38:26.321Z,41.14
2019-02-21T12:41:02.241Z,41.00
2019-02-21T12:43:34.498Z,41.06
2019-02-21T12:46:07.736Z,40.97
2019-02-21T12:48:40.973Z,40.81
2019-02-21T12:51:14.215Z,40.80
2019-02-21T12:53:47.441Z,41.00
2019-02-21T12:56:20.672Z,41.17
2019-02-21T12:58:53.896Z,41.09
2019-02-21T13:01:27.127Z,41.25
2019-02-21T13:04:00.350Z,41.26
2019-02-21T13:06:34.676Z,41.29
2019-02-21T13:09:07.909Z,41.40
2019-02-21T13:11:42.777Z,41.38
2019-02-21T13:14:16.007Z,41.41
2019-02-21T13:16:49.245Z,41.45
2019-02-21T13:19:22.479Z,41.52
2019-02-21T13:21:55.728Z,41.59
2019-02-21T13:24:28.963Z,41.68
2019-02-21T13:27:02.218Z,41.69
2019-02-21T13:29:35.446Z,41.75
2019-02-21T13:32:08.684Z,41.78
2019-02-21T13:34:41.914Z,41.72
2019-02-21T13:37:15.156Z,41.73
2019-02-21T13:39:48.387Z,41.62
2019-02-21T13:42:21.632Z,41.26
2019-02-21T13:44:54.863Z,41.01
2019-02-21T13:47:28.095Z,40.83
2019-02-21T13:50:01.337Z,40.59
2019-02-21T13:52:34.566Z,40.43
2019-02-21T13:55:07.871Z,40.25
2019-02-21T13:57:41.370Z,40.18
2019-02-21T14:00:21.777Z,40.16
2019-02-21T14:02:55.017Z,40.13
2019-02-21T14:05:28.247Z,40.05
2019-02-21T14:08:01.487Z,39.98
2019-02-21T14:10:34.887Z,39.95
2019-02-21T14:13:08.134Z,40.03
2019-02-21T14:15:41.359Z,40.03
2019-02-21T14:18:14.637Z,40.08
2019-02-21T14:20:47.883Z,40.24
2019-02-21T14:23:21.110Z,40.36
2019-02-21T14:25:54.362Z,40.34
2019-02-21T14:28:27.584Z,40.44
2019-02-21T14:31:00.816Z,40.53
2019-02-21T14:33:34.053Z,40.74
2019-02-21T14:36:15.234Z,40.92
2019-02-21T14:38:42.238Z,41.01
2019-02-21T14:41:15.470Z,40.97
2019-02-21T14:43:48.720Z,40.95
2019-02-21T14:46:21.955Z,40.99
2019-02-21T14:48:55.193Z,40.99
2019-02-21T14:51:28.417Z,40.99
2019-02-21T14:54:01.652Z,40.83
2019-02-21T14:56:34.891Z,40.81
2019-02-21T14:59:09.106Z,40.87
2019-02-21T15:01:42.333Z,40.83
2019-02-21T15:04:15.586Z,40.87
2019-02-21T15:06:48.811Z,40.82
2019-02-21T15:09:22.057Z,40.86
2019-02-21T15:11:55.570Z,40.70
2019-02-21T15:14:28.841Z,40.70
2019-02-21T15:17:03.905Z,40.73
2019-02-21T15:19:37.030Z,40.79
2019-02-21T15:22:10.260Z,40.84
2019-02-21T15:24:43.507Z,40.96
2019-02-21T15:27:16.733Z,40.96
2019-02-21T15:29:49.976Z,41.04
2019-02-21T15:32:23.204Z,41.08
2019-02-21T15:34:56.444Z,41.15
2019-02-21T15:37:29.935Z,41.14
2019-02-21T15:40:04.322Z,41.12
2019-02-21T15:42:37.548Z,41.08
2019-02-21T15:45:23.454Z,40.99
2019-02-21T15:47:54.882Z,40.94
2019-02-21T15:50:28.137Z,40.93
2019-02-21T15:53:01.361Z,40.82
2019-02-21T15:55:34.599Z,40.81
2019-02-21T15:58:07.823Z,40.77
2019-02-21T16:00:41.089Z,40.79
2019-02-21T16:03:14.333Z,40.97
2019-02-21T16:05:47.569Z,41.04
2019-02-21T16:08:20.801Z,41.19
2019-02-21T16:10:54.037Z,41.30
2019-02-21T16:13:27.457Z,41.35
2019-02-21T16:16:00.923Z,41.45
2019-02-21T16:18:34.162Z,41.62
2019-02-21T16:21:07.409Z,41.52
2019-02-21T16:23:40.638Z,41.60
2019-02-21T16:26:13.886Z,41.58
2019-02-21T16:28:47.112Z,41.52
2019-02-21T16:31:20.355Z,41.42
2019-02-21T16:33:55.218Z,41.19
2019-02-21T16:36:28.453Z,41.24
2019-02-21T16:39:04.314Z,41.37
2019-02-21T16:41:38.237Z,41.56
2019-02-21T16:44:11.468Z,41.78
2019-02-21T16:46:44.697Z,41.67
2019-02-21T16:49:17.948Z,41.59
2019-02-21T16:51:51.179Z,41.39
2019-02-21T16:54:24.418Z,41.22
2019-02-21T16:56:57.652Z,41.09
2019-02-21T16:59:30.884Z,41.01
2019-02-21T17:02:04.113Z,40.93
2019-02-21T17:04:37.349Z,40.87
2019-02-21T17:07:15.192Z,40.87
2019-02-21T17:09:45.527Z,40.90
2019-02-21T17:12:18.763Z,41.00
2019-02-21T17:14:52.052Z,41.05
2019-02-21T17:17:25.260Z,41.05
2019-02-21T17:19:58.490Z,41.00
2019-02-21T17:22:31.770Z,41.04
2019-02-21T17:25:07.904Z,41.09
2019-02-21T17:27:41.154Z,41.01
2019-02-21T17:30:17.824Z,41.04
2019-02-21T17:32:51.062Z,41.03
2019-02-21T17:35:24.299Z,41.03
2019-02-21T17:37:57.545Z,41.08
2019-02-21T17:40:30.775Z,41.13
2019-02-21T17:43:04.046Z,41.25
2019-02-21T17:45:37.268Z,41.40
2019-02-21T17:48:10.510Z,41.52
2019-02-21T17:50:43.741Z,41.50
2019-02-21T17:53:16.982Z,41.42
2019-02-21T17:55:50.224Z,41.37
2019-02-21T17:58:23.478Z,41.26
2019-02-21T18:00:56.700Z,41.15
2019-02-21T18:03:29.958Z,41.06
2019-02-21T18:06:03.189Z,42.00
2019-02-21T18:08:36.431Z,40.79
2019-02-21T18:11:09.661Z,40.69
2019-02-21T18:13:42.905Z,40.98
2019-02-21T18:16:16.137Z,41.09
2019-02-21T18:18:49.372Z,40.81
2019-02-21T18:21:22.601Z,40.82
2019-02-21T18:23:55.855Z,41.18
2019-02-21T18:26:29.080Z,41.21
2019-02-21T18:29:02.324Z,41.12
2019-02-21T18:31:35.567Z,41.20
2019-02-21T18:34:09.779Z,41.23
2019-02-21T18:36:43.009Z,41.31
2019-02-21T18:39:16.250Z,41.58
2019-02-21T18:41:49.477Z,41.71
2019-02-21T18:44:22.707Z,41.85
2019-02-21T18:46:57.010Z,41.86
2019-02-21T18:49:30.249Z,41.89
2019-02-21T18:52:03.483Z,41.94
2019-02-21T18:54:36.722Z,41.91
2019-02-21T18:57:12.258Z,41.86
2019-02-21T18:59:44.897Z,41.88
2019-02-21T19:02:19.861Z,41.97
2019-02-21T19:04:53.150Z,42.02
2019-02-21T19:07:26.391Z,42.09
2019-02-21T19:10:00.609Z,42.22
2019-02-21T19:12:33.835Z,42.24
2019-02-21T19:15:08.614Z,42.28
2019-02-21T19:17:41.839Z,42.28
2019-02-21T19:20:19.167Z,42.25
2019-02-21T19:22:53.370Z,42.19
2019-02-21T19:25:27.190Z,42.21
2019-02-21T19:28:00.420Z,42.30
2019-02-21T19:30:39.558Z,42.43
2019-02-21T19:33:12.795Z,42.51
2019-02-21T19:35:48.496Z,42.58
2019-02-21T19:38:20.978Z,42.58
2019-02-21T19:40:54.229Z,42.64
2019-02-21T19:43:27.456Z,42.70
2019-02-21T19:46:01.675Z,42.76
2019-02-21T19:48:34.908Z,42.80
2019-02-21T19:51:08.153Z,42.83
2019-02-21T19:53:41.384Z,42.86
2019-02-21T19:56:14.620Z,42.89
2019-02-21T19:58:47.848Z,42.90
2019-02-21T20:01:21.098Z,42.97
2019-02-21T20:03:54.324Z,43.01
2019-02-21T20:06:27.567Z,43.03
2019-02-21T20:09:00.798Z,43.16
2019-02-21T20:11:36.042Z,43.10
2019-02-21T20:14:09.360Z,43.11
2019-02-21T20:16:42.600Z,43.13
2019-02-21T20:19:15.829Z,43.13
2019-02-21T20:21:49.095Z,43.12
2019-02-21T20:24:22.322Z,43.13
2019-02-21T20:26:55.578Z,43.19
2019-02-21T20:29:28.813Z,43.21
2019-02-21T20:32:02.072Z,43.46
2019-02-21T20:34:35.770Z,43.49
2019-02-21T20:37:09.017Z,43.48
2019-02-21T20:39:42.251Z,43.46
2019-02-21T20:42:16.480Z,43.45
2019-02-21T20:44:49.709Z,43.50
2019-02-21T20:47:24.021Z,43.62
2019-02-21T20:49:57.262Z,43.52
2019-02-21T21:11:58.136Z,39.76
2019-02-21T21:14:31.368Z,41.34
2019-02-21T21:17:04.628Z,42.35
2019-02-21T21:19:37.865Z,42.62
2019-02-21T21:22:11.109Z,43.15
2019-02-21T21:24:44.344Z,43.26
2019-02-21T21:27:17.590Z,43.38
2019-02-21T21:29:50.826Z,43.53
2019-02-21T21:32:24.067Z,43.59
2019-02-21T21:34:57.303Z,43.54
2019-02-21T21:37:30.552Z,43.60
2019-02-21T21:40:09.789Z,43.57
2019-02-21T21:42:43.045Z,43.77
2019-02-21T21:45:17.217Z,43.76
2019-02-21T21:47:50.466Z,43.69
2019-02-21T21:50:23.697Z,43.75
2019-02-21T21:52:56.950Z,43.76
2019-02-21T21:55:30.178Z,43.87
2019-02-21T21:58:03.433Z,44.07
2019-02-21T22:00:36.659Z,43.98
2019-02-21T22:03:09.913Z,44.01
2019-02-21T22:05:43.150Z,44.10
2019-02-21T22:08:16.393Z,44.13
2019-02-21T22:10:49.629Z,44.15
2019-02-21T22:13:22.870Z,44.34
2019-02-21T22:15:56.108Z,44.34
2019-02-21T22:18:29.359Z,44.26
2019-02-21T22:21:02.587Z,44.39
2019-02-21T22:23:36.791Z,44.55
2019-02-21T22:26:10.030Z,44.33
2019-02-21T22:28:43.284Z,44.64
2019-02-21T22:31:16.523Z,44.63
2019-02-21T22:33:49.762Z,44.66
2019-02-21T22:36:23.075Z,44.86
2019-02-21T22:38:56.322Z,44.81
2019-02-21T22:41:29.551Z,44.77
2019-02-21T22:44:02.807Z,44.87
2019-02-21T22:46:36.058Z,45.08
2019-02-21T22:49:09.268Z,44.88
2019-02-21T22:51:42.502Z,44.97
2019-02-21T22:54:15.761Z,45.02
2019-02-21T22:56:49.000Z,45.01
2019-02-21T22:59:22.252Z,45.05
2019-02-21T23:01:56.522Z,45.21
2019-02-21T23:04:33.472Z,45.20
2019-02-21T23:07:12.611Z,45.18
2019-02-21T23:09:45.862Z,45.10
2019-02-21T23:12:19.093Z,45.24
2019-02-21T23:14:52.335Z,45.26
2019-02-21T23:17:25.585Z,45.25
2019-02-21T23:19:58.812Z,45.33
2019-02-21T23:22:32.042Z,45.28
2019-02-21T23:25:06.038Z,45.29
2019-02-21T23:27:39.275Z,45.32
2019-02-21T23:30:12.515Z,45.37
2019-02-21T23:32:45.822Z,45.33
2019-02-21T23:35:19.068Z,45.48
2019-02-21T23:37:53.382Z,45.60
2019-02-21T23:40:26.685Z,45.40
2019-02-21T23:42:59.857Z,45.76
2019-02-21T23:45:33.103Z,45.53
2019-02-21T23:48:06.328Z,45.74
2019-02-21T23:50:39.569Z,45.93
2019-02-21T23:53:12.799Z,45.75
2019-02-21T23:55:46.045Z,45.81
2019-02-21T23:58:19.272Z,45.91
